createdAt,value
2017-09-09T00:01:39.420Z,6.43
2017-09-09T00:04:07.700Z,4.47
2017-09-09T00:06:36.090Z,6.40
2017-09-09T00:09:04.387Z,5.17
2017-09-09T00:11:32.746Z,7.00
2017-09-09T00:14:01.115Z,8.93
2017-09-09T00:16:29.403Z,6.43
2017-09-09T00:18:57.769Z,8.10
2017-09-09T00:21:26.035Z,7.67
2017-09-09T00:23:54.322Z,8.83
2017-09-09T00:26:22.631Z,5.77
2017-09-09T00:28:51.681Z,6.13
2017-09-09T00:31:19.944Z,4.93
2017-09-09T00:33:48.249Z,6.97
2017-09-09T00:36:16.539Z,7.90
2017-09-09T00:38:44.812Z,7.77
2017-09-09T00:41:13.208Z,6.90
2017-09-09T00:43:41.589Z,6.43
2017-09-09T00:46:09.864Z,7.20
2017-09-09T00:48:38.132Z,5.40
2017-09-09T00:51:06.405Z,9.20
2017-09-09T00:53:34.684Z,6.60
2017-09-09T00:56:03.059Z,6.57
2017-09-09T00:58:31.344Z,5.47
2017-09-09T01:00:59.601Z,6.13
2017-09-09T01:03:27.999Z,6.80
2017-09-09T01:05:56.266Z,6.73
2017-09-09T01:08:24.757Z,7.17
2017-09-09T01:10:53.016Z,6.67
2017-09-09T01:13:21.411Z,6.27
2017-09-09T01:15:49.679Z,8.90
2017-09-09T01:18:17.981Z,5.33
2017-09-09T01:20:46.253Z,10.00
2017-09-09T01:23:14.518Z,7.03
2017-09-09T01:25:42.889Z,7.60
2017-09-09T01:28:11.190Z,6.13
2017-09-09T01:30:39.473Z,6.60
2017-09-09T01:33:08.547Z,6.00
2017-09-09T01:35:36.916Z,7.17
2017-09-09T01:38:05.197Z,5.23
2017-09-09T01:40:33.583Z,7.00
2017-09-09T01:43:01.857Z,7.37
2017-09-09T01:45:30.147Z,5.57
2017-09-09T01:47:58.417Z,7.40
2017-09-09T01:50:26.672Z,7.00
2017-09-09T01:52:54.959Z,7.13
2017-09-09T01:55:23.223Z,7.43
2017-09-09T01:57:51.497Z,7.83
2017-09-09T02:00:19.798Z,4.60
2017-09-09T02:02:48.187Z,4.97
2017-09-09T02:05:16.456Z,5.90
2017-09-09T02:07:44.731Z,4.93
2017-09-09T02:10:13.016Z,5.40
2017-09-09T02:12:41.306Z,6.40
2017-09-09T02:15:10.403Z,13.33
2017-09-09T02:17:38.759Z,6.67
2017-09-09T02:20:07.037Z,6.30
2017-09-09T02:22:35.323Z,11.13
2017-09-09T02:25:03.694Z,7.07
2017-09-09T02:27:31.959Z,9.60
2017-09-09T02:30:00.350Z,7.37
2017-09-09T02:32:28.627Z,8.73
2017-09-09T02:34:56.918Z,7.40
2017-09-09T02:37:25.181Z,8.00
2017-09-09T02:39:53.559Z,7.43
2017-09-09T02:42:21.948Z,4.87
2017-09-09T02:44:50.221Z,6.73
2017-09-09T02:47:18.497Z,7.87
2017-09-09T02:49:46.754Z,8.00
2017-09-09T02:52:15.142Z,9.67
2017-09-09T02:54:43.400Z,9.00
2017-09-09T02:57:11.672Z,7.63
2017-09-09T02:59:39.927Z,8.90
2017-09-09T03:02:08.205Z,9.60
2017-09-09T03:04:36.480Z,7.47
2017-09-09T03:07:04.810Z,8.80
2017-09-09T03:09:33.069Z,7.40
2017-09-09T03:12:01.337Z,6.33
2017-09-09T03:14:29.611Z,9.67
2017-09-09T03:16:57.917Z,6.53
2017-09-09T03:19:26.171Z,7.93
2017-09-09T03:21:54.476Z,5.80
2017-09-09T03:24:22.746Z,9.03
2017-09-09T03:26:51.009Z,7.60
2017-09-09T03:29:19.399Z,6.10
2017-09-09T03:31:47.687Z,6.80
2017-09-09T03:34:15.970Z,9.27
2017-09-09T03:36:44.999Z,6.67
2017-09-09T03:39:14.024Z,5.90
2017-09-09T03:41:42.324Z,6.80
2017-09-09T03:44:10.593Z,11.60
2017-09-09T03:46:38.884Z,6.53
2017-09-09T03:49:07.142Z,6.60
2017-09-09T03:51:35.431Z,4.43
2017-09-09T03:54:03.693Z,5.90
2017-09-09T03:56:31.967Z,6.90
2017-09-09T03:59:00.263Z,6.17
2017-09-09T04:01:28.542Z,6.20
2017-09-09T04:03:56.831Z,8.10
2017-09-09T04:06:25.205Z,4.60
2017-09-09T04:08:53.473Z,8.53
2017-09-09T04:11:21.753Z,8.17
2017-09-09T04:13:50.036Z,7.63
2017-09-09T04:16:18.284Z,6.50
2017-09-09T04:18:46.588Z,8.00
2017-09-09T04:21:14.846Z,7.27
2017-09-09T04:23:43.207Z,8.27
2017-09-09T04:26:11.530Z,5.90
2017-09-09T04:28:39.802Z,7.63
2017-09-09T04:31:08.178Z,9.10
2017-09-09T04:33:36.432Z,11.00
2017-09-09T04:36:04.723Z,8.13
2017-09-09T04:38:32.991Z,8.80
2017-09-09T04:41:01.281Z,8.93
2017-09-09T04:43:29.565Z,5.77
2017-09-09T04:45:57.886Z,6.60
2017-09-09T04:48:26.210Z,7.57
2017-09-09T04:50:54.484Z,6.20
2017-09-09T04:53:22.766Z,7.20
2017-09-09T04:55:51.039Z,7.67
2017-09-09T04:58:20.139Z,8.50
2017-09-09T05:00:48.412Z,10.90
2017-09-09T05:03:16.799Z,8.40
2017-09-09T05:05:45.037Z,8.17
2017-09-09T05:08:13.315Z,7.87
2017-09-09T05:10:41.633Z,6.50
2017-09-09T05:13:09.910Z,10.07
2017-09-09T05:15:38.183Z,11.17
2017-09-09T05:18:06.505Z,9.10
2017-09-09T05:20:34.779Z,8.03
2017-09-09T05:23:03.051Z,9.47
2017-09-09T05:25:31.329Z,8.60
2017-09-09T05:27:59.593Z,9.43
2017-09-09T05:30:27.890Z,8.60
2017-09-09T05:32:56.257Z,10.83
2017-09-09T05:35:24.535Z,7.80
2017-09-09T05:37:52.826Z,7.57
2017-09-09T05:40:21.861Z,9.70
2017-09-09T05:42:50.188Z,12.03
2017-09-09T05:45:18.465Z,10.70
2017-09-09T05:47:46.835Z,8.20
2017-09-09T05:50:15.089Z,9.43
2017-09-09T05:52:44.136Z,9.43
2017-09-09T05:55:12.400Z,8.90
2017-09-09T05:57:40.697Z,10.13
2017-09-09T06:00:08.962Z,9.80
2017-09-09T06:02:37.247Z,7.43
2017-09-09T06:05:05.504Z,8.03
2017-09-09T06:07:34.574Z,7.17
2017-09-09T06:10:02.837Z,7.30
2017-09-09T06:12:31.166Z,8.90
2017-09-09T06:14:59.431Z,8.27
2017-09-09T06:17:27.724Z,7.90
2017-09-09T06:19:56.017Z,12.93
2017-09-09T06:22:24.280Z,7.03
2017-09-09T06:24:52.569Z,8.33
2017-09-09T06:27:20.832Z,10.17
2017-09-09T06:29:49.119Z,9.10
2017-09-09T06:32:17.388Z,7.97
2017-09-09T06:34:45.673Z,7.43
2017-09-09T06:37:13.938Z,6.63
2017-09-09T06:39:42.210Z,6.50
2017-09-09T06:42:10.529Z,9.80
2017-09-09T06:44:39.567Z,7.67
2017-09-09T06:47:07.965Z,6.33
2017-09-09T06:49:36.224Z,6.80
2017-09-09T06:52:04.607Z,13.70
2017-09-09T06:54:32.873Z,13.60
2017-09-09T06:57:01.176Z,8.97
2017-09-09T06:59:29.461Z,6.93
2017-09-09T07:01:58.503Z,9.07
2017-09-09T07:04:26.775Z,7.83
2017-09-09T07:06:55.102Z,9.90
2017-09-09T07:09:23.573Z,8.17
2017-09-09T07:11:51.815Z,6.00
2017-09-09T07:14:20.748Z,11.67
2017-09-09T07:16:48.996Z,11.13
2017-09-09T07:19:17.280Z,12.67
2017-09-09T07:21:45.557Z,6.23
2017-09-09T07:24:13.903Z,6.10
2017-09-09T07:26:42.231Z,6.03
2017-09-09T07:29:10.488Z,6.70
2017-09-09T07:31:38.763Z,7.10
2017-09-09T07:34:07.035Z,9.10
2017-09-09T07:36:35.325Z,7.70
2017-09-09T07:39:03.666Z,7.50
2017-09-09T07:41:31.943Z,6.93
2017-09-09T07:44:00.207Z,9.03
2017-09-09T07:46:28.544Z,7.90
2017-09-09T07:48:56.808Z,7.50
2017-09-09T07:51:25.905Z,5.17
2017-09-09T07:53:54.206Z,5.80
2017-09-09T07:56:22.504Z,6.53
2017-09-09T07:58:50.761Z,7.77
2017-09-09T08:01:19.030Z,7.23
2017-09-09T08:03:47.317Z,9.20
2017-09-09T08:06:15.987Z,7.13
2017-09-09T08:08:44.318Z,7.03
2017-09-09T08:11:12.586Z,8.00
2017-09-09T08:13:40.861Z,4.60
2017-09-09T08:16:09.136Z,6.57
2017-09-09T08:18:37.534Z,4.83
2017-09-09T08:21:05.783Z,6.70
2017-09-09T08:23:34.048Z,7.53
2017-09-09T08:26:02.440Z,8.80
2017-09-09T08:28:30.842Z,5.93
2017-09-09T08:30:59.108Z,12.80
2017-09-09T08:33:27.414Z,7.90
2017-09-09T08:35:55.664Z,8.43
2017-09-09T08:38:23.985Z,7.00
2017-09-09T08:40:52.264Z,7.90
2017-09-09T08:43:21.327Z,9.80
2017-09-09T08:45:49.615Z,7.67
2017-09-09T08:48:18.627Z,6.80
2017-09-09T08:50:46.905Z,5.83
2017-09-09T08:53:15.929Z,8.03
2017-09-09T08:55:44.219Z,7.00
2017-09-09T08:58:12.524Z,7.63
2017-09-09T09:00:40.778Z,6.43
2017-09-09T09:03:09.167Z,6.27
2017-09-09T09:05:37.544Z,5.97
2017-09-09T09:08:06.844Z,5.40
2017-09-09T09:10:35.119Z,8.10
2017-09-09T09:13:03.392Z,6.83
2017-09-09T09:15:31.659Z,4.60
2017-09-09T09:18:00.036Z,8.27
2017-09-09T09:20:28.325Z,9.53
2017-09-09T09:22:56.695Z,9.60
2017-09-09T09:25:24.985Z,4.80
2017-09-09T09:27:53.253Z,7.10
2017-09-09T09:30:21.656Z,5.10
2017-09-09T09:32:49.925Z,7.67
2017-09-09T09:35:18.241Z,6.07
2017-09-09T09:37:47.302Z,8.20
2017-09-09T09:40:15.590Z,5.90
2017-09-09T09:42:43.858Z,7.10
2017-09-09T09:45:12.135Z,6.50
2017-09-09T09:47:40.617Z,6.90
2017-09-09T09:50:08.873Z,4.93
2017-09-09T09:52:37.151Z,6.43
2017-09-09T09:55:05.427Z,5.20
2017-09-09T09:57:33.815Z,8.50
2017-09-09T10:00:02.102Z,7.10
2017-09-09T10:02:30.353Z,5.67
2017-09-09T10:04:58.669Z,5.10
2017-09-09T10:07:26.954Z,5.73
2017-09-09T10:09:55.236Z,5.37
2017-09-09T10:12:23.492Z,4.00
2017-09-09T10:14:52.663Z,7.13
2017-09-09T10:17:20.967Z,5.80
2017-09-09T10:19:50.061Z,4.40
2017-09-09T10:22:18.304Z,5.73
2017-09-09T10:24:46.569Z,7.43
2017-09-09T10:27:14.840Z,4.93
2017-09-09T10:29:43.178Z,5.83
2017-09-09T10:32:11.463Z,5.13
2017-09-09T10:34:39.739Z,5.07
2017-09-09T10:37:08.036Z,5.53
2017-09-09T10:39:36.893Z,6.73
2017-09-09T10:42:05.229Z,4.70
2017-09-09T10:44:33.536Z,4.80
2017-09-09T10:47:02.583Z,4.00
2017-09-09T10:49:30.928Z,3.30
2017-09-09T10:52:00.240Z,4.40
2017-09-09T10:54:29.284Z,4.87
2017-09-09T10:56:57.551Z,6.03
2017-09-09T10:59:25.858Z,4.97
2017-09-09T11:01:54.893Z,4.47
2017-09-09T11:04:23.191Z,6.10
2017-09-09T11:06:51.687Z,5.70
2017-09-09T11:09:19.966Z,4.90
2017-09-09T11:11:48.332Z,5.53
2017-09-09T11:14:16.601Z,5.70
2017-09-09T11:16:44.900Z,3.50
2017-09-09T11:19:13.172Z,5.57
2017-09-09T11:21:41.566Z,5.57
2017-09-09T11:24:09.892Z,5.00
2017-09-09T11:26:38.949Z,4.37
2017-09-09T11:29:08.067Z,6.07
2017-09-09T11:31:36.334Z,4.70
2017-09-09T11:34:04.617Z,5.53
2017-09-09T11:36:32.885Z,7.10
2017-09-09T11:39:01.995Z,7.27
2017-09-09T11:41:30.280Z,4.00
2017-09-09T11:43:58.791Z,5.73
2017-09-09T11:46:27.190Z,4.13
2017-09-09T11:48:55.786Z,4.23
2017-09-09T11:51:24.099Z,4.30
2017-09-09T11:53:52.361Z,4.80
2017-09-09T11:56:20.665Z,5.50
2017-09-09T11:58:48.917Z,6.40
2017-09-09T12:01:17.254Z,7.60
2017-09-09T12:03:46.284Z,6.67
2017-09-09T12:06:15.273Z,6.13
2017-09-09T12:08:43.531Z,8.37
2017-09-09T12:11:11.836Z,6.87
2017-09-09T12:13:40.123Z,5.40
2017-09-09T12:16:08.780Z,6.73
2017-09-09T12:18:39.580Z,4.53
2017-09-09T12:21:07.834Z,5.43
2017-09-09T12:23:36.894Z,7.13
2017-09-09T12:26:05.171Z,6.10
2017-09-09T12:28:33.496Z,5.30
2017-09-09T12:31:01.777Z,4.93
2017-09-09T12:33:30.031Z,6.53
2017-09-09T12:35:59.075Z,5.30
2017-09-09T12:38:27.331Z,5.23
2017-09-09T12:40:55.640Z,10.77
2017-09-09T12:43:24.670Z,6.17
2017-09-09T12:45:53.727Z,5.13
2017-09-09T12:48:21.977Z,5.77
2017-09-09T12:50:50.297Z,6.27
2017-09-09T12:53:18.581Z,4.77
2017-09-09T12:55:46.851Z,9.50
2017-09-09T12:58:15.237Z,4.83
2017-09-09T13:00:43.499Z,4.87
2017-09-09T13:03:11.772Z,5.20
2017-09-09T13:05:40.065Z,6.33
2017-09-09T13:08:08.446Z,4.87
2017-09-09T13:10:36.714Z,4.83
2017-09-09T13:13:05.030Z,5.67
2017-09-09T13:15:34.047Z,5.03
2017-09-09T13:18:02.304Z,7.10
2017-09-09T13:20:31.351Z,5.97
2017-09-09T13:22:59.617Z,4.30
2017-09-09T13:25:27.896Z,7.77
2017-09-09T13:27:56.164Z,5.50
2017-09-09T13:30:24.586Z,7.30
2017-09-09T13:32:52.844Z,4.07
2017-09-09T13:35:21.100Z,4.73
2017-09-09T13:37:49.376Z,4.73
2017-09-09T13:40:17.646Z,4.90
2017-09-09T13:42:45.962Z,5.37
2017-09-09T13:45:14.235Z,4.73
2017-09-09T13:47:42.515Z,6.27
2017-09-09T13:50:10.775Z,7.60
2017-09-09T13:52:39.156Z,6.20
2017-09-09T13:55:07.408Z,4.47
2017-09-09T13:57:35.741Z,3.80
2017-09-09T14:00:04.021Z,5.23
2017-09-09T14:02:32.301Z,5.27
2017-09-09T14:05:00.617Z,4.50
2017-09-09T14:07:28.887Z,5.63
2017-09-09T14:09:57.174Z,5.60
2017-09-09T14:12:26.192Z,5.43
2017-09-09T14:14:55.347Z,4.20
2017-09-09T14:17:23.625Z,5.30
2017-09-09T14:19:51.882Z,6.23
2017-09-09T14:22:20.200Z,7.33
2017-09-09T14:24:49.294Z,4.27
2017-09-09T14:27:17.656Z,4.60
2017-09-09T14:29:45.947Z,5.17
2017-09-09T14:32:14.259Z,3.27
2017-09-09T14:34:43.272Z,4.80
2017-09-09T14:37:11.533Z,5.30
2017-09-09T14:39:39.829Z,5.37
2017-09-09T14:42:08.149Z,5.00
2017-09-09T14:44:36.438Z,4.43
2017-09-09T14:47:05.469Z,5.83
2017-09-09T14:49:33.761Z,4.07
2017-09-09T14:52:02.066Z,3.97
2017-09-09T14:54:30.353Z,4.30
2017-09-09T14:56:58.616Z,4.23
2017-09-09T14:59:26.953Z,3.30
2017-09-09T15:01:55.226Z,4.70
2017-09-09T15:04:23.502Z,3.43
2017-09-09T15:06:51.797Z,6.70
2017-09-09T15:09:20.084Z,4.07
2017-09-09T15:11:48.381Z,4.30
2017-09-09T15:14:16.660Z,7.37
2017-09-09T15:16:45.043Z,3.40
2017-09-09T15:19:13.310Z,3.50
2017-09-09T15:21:41.696Z,3.13
2017-09-09T15:24:09.970Z,3.70
2017-09-09T15:26:38.282Z,3.60
2017-09-09T15:29:07.324Z,3.77
2017-09-09T15:31:35.649Z,4.73
2017-09-09T15:34:04.684Z,3.03
2017-09-09T15:36:33.094Z,4.70
2017-09-09T15:39:01.374Z,2.90
2017-09-09T15:41:29.640Z,3.30
2017-09-09T15:43:57.922Z,3.07
2017-09-09T15:46:26.176Z,4.67
2017-09-09T15:48:54.456Z,3.57
2017-09-09T15:51:22.929Z,4.53
2017-09-09T15:53:51.231Z,3.40
2017-09-09T15:56:19.508Z,3.50
2017-09-09T15:58:47.771Z,2.93
2017-09-09T16:01:16.061Z,2.60
2017-09-09T16:03:44.449Z,2.40
2017-09-09T16:06:12.831Z,2.43
2017-09-09T16:08:41.102Z,3.73
2017-09-09T16:11:09.400Z,3.70
2017-09-09T16:13:38.445Z,3.00
2017-09-09T16:16:06.712Z,6.30
2017-09-09T16:18:34.997Z,2.40
2017-09-09T16:21:03.255Z,2.90
2017-09-09T16:23:31.583Z,2.60
2017-09-09T16:25:59.858Z,3.50
2017-09-09T16:28:28.144Z,3.50
2017-09-09T16:30:56.425Z,2.17
2017-09-09T16:33:24.720Z,3.40
2017-09-09T16:35:53.738Z,5.63
2017-09-09T16:38:22.064Z,2.30
2017-09-09T16:40:50.342Z,4.83
2017-09-09T16:43:18.625Z,3.00
2017-09-09T16:45:46.917Z,2.93
2017-09-09T16:48:15.946Z,2.77
2017-09-09T16:50:44.271Z,4.13
2017-09-09T16:53:12.529Z,2.43
2017-09-09T16:55:40.808Z,3.50
2017-09-09T16:58:09.094Z,3.40
2017-09-09T17:00:37.478Z,2.53
2017-09-09T17:03:05.742Z,2.90
2017-09-09T17:05:34.049Z,4.50
2017-09-09T17:08:02.301Z,4.43
2017-09-09T17:10:30.587Z,3.53
2017-09-09T17:12:58.858Z,3.83
2017-09-09T17:15:27.245Z,3.67
2017-09-09T17:17:55.499Z,5.23
2017-09-09T17:20:23.797Z,10.93
2017-09-09T17:22:52.062Z,4.80
2017-09-09T17:25:20.351Z,3.13
2017-09-09T17:27:48.628Z,3.27
2017-09-09T17:30:16.948Z,4.47
2017-09-09T17:32:45.203Z,3.97
2017-09-09T17:35:14.289Z,2.90
2017-09-09T17:37:42.964Z,4.10
2017-09-09T17:40:11.236Z,5.60
2017-09-09T17:42:39.588Z,3.80
2017-09-09T17:45:08.463Z,3.23
2017-09-09T17:47:37.508Z,4.53
2017-09-09T17:50:05.886Z,3.90
2017-09-09T17:52:34.265Z,4.30
2017-09-09T17:55:02.521Z,4.07
2017-09-09T17:57:30.972Z,3.07
2017-09-09T17:59:59.276Z,5.00
2017-09-09T18:02:27.577Z,5.00
2017-09-09T18:04:55.876Z,3.17
2017-09-09T18:07:24.926Z,2.83
2017-09-09T18:09:53.253Z,3.23
2017-09-09T18:12:21.608Z,3.70
2017-09-09T18:14:50.054Z,3.73
2017-09-09T18:17:18.464Z,5.37
2017-09-09T18:19:46.833Z,2.77
2017-09-09T18:22:15.120Z,3.20
2017-09-09T18:24:43.598Z,3.40
2017-09-09T18:27:11.844Z,3.70
2017-09-09T18:29:40.252Z,4.00
2017-09-09T18:32:08.615Z,4.37
2017-09-09T18:34:36.864Z,3.30
2017-09-09T18:37:05.151Z,3.50
2017-09-09T18:39:33.421Z,3.53
2017-09-09T18:42:01.741Z,4.90
2017-09-09T18:44:30.106Z,3.47
2017-09-09T18:46:58.369Z,6.40
2017-09-09T18:49:26.647Z,3.20
2017-09-09T18:51:54.955Z,5.13
2017-09-09T18:54:23.232Z,10.30
2017-09-09T18:56:51.605Z,6.30
2017-09-09T18:59:19.890Z,5.57
2017-09-09T19:01:48.969Z,3.10
2017-09-09T19:04:17.254Z,4.10
2017-09-09T19:06:45.520Z,5.83
2017-09-09T19:09:13.807Z,4.47
2017-09-09T19:11:42.067Z,3.23
2017-09-09T19:14:10.369Z,14.77
2017-09-09T19:16:38.631Z,6.17
2017-09-09T19:19:06.937Z,5.33
2017-09-09T19:21:36.105Z,4.20
2017-09-09T19:24:04.364Z,4.57
2017-09-09T19:26:32.663Z,4.90
2017-09-09T19:29:00.923Z,3.40
2017-09-09T19:31:29.312Z,4.63
2017-09-09T19:33:57.569Z,2.53
2017-09-09T19:36:25.852Z,3.50
2017-09-09T19:38:54.145Z,7.00
2017-09-09T19:41:22.525Z,2.63
2017-09-09T19:43:50.911Z,3.33
2017-09-09T19:46:19.844Z,3.17
2017-09-09T19:48:48.263Z,2.90
2017-09-09T19:51:16.543Z,3.97
2017-09-09T19:53:45.622Z,6.37
2017-09-09T19:56:15.371Z,5.30
2017-09-09T19:58:44.437Z,4.77
2017-09-09T20:01:12.708Z,3.60
2017-09-09T20:03:40.983Z,5.43
2017-09-09T20:06:09.262Z,3.23
2017-09-09T20:08:38.039Z,3.63
2017-09-09T20:11:06.335Z,4.60
2017-09-09T20:13:34.605Z,3.03
2017-09-09T20:16:02.917Z,3.53
2017-09-09T20:18:31.241Z,3.47
2017-09-09T20:21:00.308Z,3.17
2017-09-09T20:23:28.589Z,4.20
2017-09-09T20:25:56.864Z,4.00
2017-09-09T20:28:25.156Z,4.60
2017-09-09T20:30:53.422Z,2.90
2017-09-09T20:33:21.787Z,4.43
2017-09-09T20:35:50.054Z,4.20
2017-09-09T20:38:18.341Z,2.93
2017-09-09T20:40:46.612Z,3.63
2017-09-09T20:43:14.992Z,3.43
2017-09-09T20:45:43.289Z,3.70
2017-09-09T20:48:11.547Z,4.10
2017-09-09T20:50:39.832Z,4.13
2017-09-09T20:53:08.102Z,3.33
2017-09-09T20:55:36.383Z,5.13
2017-09-09T20:58:04.641Z,3.70
2017-09-09T21:00:32.922Z,4.00
2017-09-09T21:03:01.185Z,2.90
2017-09-09T21:05:29.490Z,5.00
2017-09-09T21:07:57.764Z,3.97
2017-09-09T21:10:26.058Z,3.27
2017-09-09T21:12:54.420Z,3.67
2017-09-09T21:15:22.685Z,2.83
2017-09-09T21:17:50.977Z,7.37
2017-09-09T21:20:19.246Z,8.00
2017-09-09T21:22:47.525Z,4.23
2017-09-09T21:25:15.786Z,3.40
2017-09-09T21:27:44.114Z,5.77
2017-09-09T21:30:13.131Z,4.10
2017-09-09T21:32:41.451Z,5.30
2017-09-09T21:35:09.727Z,3.60
2017-09-09T21:37:37.991Z,3.63
2017-09-09T21:40:06.303Z,3.83
2017-09-09T21:42:34.553Z,3.70
2017-09-09T21:45:02.843Z,3.77
2017-09-09T21:47:31.121Z,3.63
2017-09-09T21:49:59.408Z,3.40
2017-09-09T21:52:28.431Z,3.30
2017-09-09T21:54:56.769Z,5.40
2017-09-09T21:57:25.041Z,3.80
2017-09-09T21:59:53.405Z,4.50
2017-09-09T22:02:21.670Z,3.13
2017-09-09T22:04:49.934Z,3.70
2017-09-09T22:07:18.213Z,2.70
2017-09-09T22:09:46.518Z,3.40
2017-09-09T22:12:14.804Z,3.83
2017-09-09T22:14:43.175Z,3.50
2017-09-09T22:17:11.475Z,4.30
2017-09-09T22:19:40.549Z,3.83
2017-09-09T22:22:08.803Z,3.73
2017-09-09T22:24:37.086Z,2.97
2017-09-09T22:27:05.355Z,3.63
2017-09-09T22:29:33.643Z,3.73
2017-09-09T22:32:01.908Z,3.10
2017-09-09T22:34:30.197Z,3.10
2017-09-09T22:36:59.309Z,3.20
2017-09-09T22:39:27.627Z,4.30
2017-09-09T22:41:55.893Z,3.97
2017-09-09T22:44:24.196Z,3.70
2017-09-09T22:46:52.478Z,8.53
2017-09-09T22:49:20.858Z,4.87
2017-09-09T22:51:49.131Z,3.33
2017-09-09T22:54:17.394Z,3.73
2017-09-09T22:56:45.670Z,4.33
2017-09-09T22:59:13.939Z,3.03
2017-09-09T23:01:42.334Z,3.50
2017-09-09T23:04:10.600Z,3.03
2017-09-09T23:06:38.877Z,3.80
2017-09-09T23:09:07.182Z,3.07
2017-09-09T23:11:35.446Z,2.50
2017-09-09T23:14:03.725Z,3.90
2017-09-09T23:16:32.000Z,3.57
2017-09-09T23:19:00.307Z,4.93
2017-09-09T23:21:29.332Z,2.93
2017-09-09T23:23:57.632Z,3.60
2017-09-09T23:26:25.908Z,4.33
2017-09-09T23:28:54.192Z,4.30
2017-09-09T23:31:22.472Z,5.90
2017-09-09T23:33:50.755Z,4.60
2017-09-09T23:36:19.030Z,3.53
2017-09-09T23:38:47.308Z,3.20
2017-09-09T23:41:15.582Z,3.03
2017-09-09T23:43:43.845Z,4.67
2017-09-09T23:46:12.119Z,3.80
2017-09-09T23:48:40.395Z,3.40
2017-09-09T23:51:08.696Z,3.80
2017-09-09T23:53:36.953Z,3.90
2017-09-09T23:56:05.244Z,3.60
2017-09-09T23:58:33.523Z,4.33
